createdAt,value
2022-10-30T00:00:39.808Z,4.53
2022-10-30T00:03:06.526Z,4.53
2022-10-30T00:05:33.198Z,4.43
2022-10-30T00:08:00.085Z,4.27
2022-10-30T00:10:27.055Z,4.50
2022-10-30T00:12:56.124Z,4.20
2022-10-30T00:15:22.700Z,4.60
2022-10-30T00:17:49.255Z,4.03
2022-10-30T00:20:16.269Z,3.90
2022-10-30T00:22:42.861Z,4.13
2022-10-30T00:25:09.642Z,4.03
2022-10-30T00:27:36.233Z,4.23
2022-10-30T00:30:02.796Z,4.60
2022-10-30T00:32:29.370Z,4.30
2022-10-30T00:34:56.038Z,4.30
2022-10-30T00:37:22.711Z,5.17
2022-10-30T00:39:49.590Z,4.23
2022-10-30T00:42:16.897Z,4.67
2022-10-30T00:44:52.877Z,4.53
2022-10-30T00:47:37.896Z,4.77
2022-10-30T00:50:33.711Z,4.40
2022-10-30T00:53:03.964Z,4.73
2022-10-30T00:55:37.214Z,4.67
2022-10-30T00:58:07.910Z,4.10
2022-10-30T01:00:35.376Z,4.27
2022-10-30T01:03:02.263Z,4.50
2022-10-30T01:05:30.614Z,4.47
2022-10-30T01:07:57.580Z,4.57
2022-10-30T01:10:24.434Z,4.60
2022-10-30T01:12:52.383Z,4.27
2022-10-30T01:15:25.396Z,4.90
2022-10-30T01:18:02.151Z,4.30
2022-10-30T01:20:50.533Z,4.20
2022-10-30T01:23:47.765Z,4.50
2022-10-30T01:26:28.785Z,4.57
2022-10-30T01:29:23.208Z,4.17
2022-10-30T01:32:07.041Z,4.50
2022-10-30T01:34:49.160Z,4.30
2022-10-30T01:37:30.988Z,4.70
2022-10-30T01:39:57.561Z,4.87
2022-10-30T01:42:46.040Z,4.53
2022-10-30T01:45:18.763Z,4.33
2022-10-30T01:47:45.302Z,4.90
2022-10-30T01:50:27.600Z,5.10
2022-10-30T01:53:18.658Z,4.50
2022-10-30T01:55:57.388Z,4.27
2022-10-30T01:58:36.782Z,4.83
2022-10-30T02:01:04.403Z,4.67
2022-10-30T02:03:31.137Z,4.40
2022-10-30T02:05:57.714Z,5.00
2022-10-30T02:08:24.456Z,4.30
2022-10-30T02:10:52.646Z,4.03
2022-10-30T02:13:19.376Z,4.43
2022-10-30T02:15:47.322Z,5.30
2022-10-30T02:18:14.001Z,4.60
2022-10-30T02:20:40.681Z,4.77
2022-10-30T02:23:09.103Z,4.20
2022-10-30T02:25:36.067Z,4.80
2022-10-30T02:28:02.718Z,4.30
2022-10-30T02:30:29.325Z,4.47
2022-10-30T02:32:56.370Z,4.83
2022-10-30T02:35:23.308Z,4.80
2022-10-30T02:37:50.151Z,4.33
2022-10-30T02:40:16.918Z,5.20
2022-10-30T02:42:43.640Z,4.23
2022-10-30T02:45:11.715Z,5.17
2022-10-30T02:47:38.318Z,5.47
2022-10-30T02:50:05.330Z,4.90
2022-10-30T02:52:32.160Z,4.60
2022-10-30T02:54:59.035Z,4.87
2022-10-30T02:57:25.678Z,4.50
2022-10-30T02:59:52.283Z,4.93
2022-10-30T03:02:19.620Z,4.70
2022-10-30T03:04:49.081Z,5.00
2022-10-30T03:07:15.791Z,4.83
2022-10-30T03:09:42.404Z,5.13
2022-10-30T03:12:08.975Z,4.60
2022-10-30T03:14:35.579Z,5.20
2022-10-30T03:17:02.203Z,4.80
2022-10-30T03:19:28.803Z,4.83
2022-10-30T03:21:55.407Z,4.47
2022-10-30T03:24:22.012Z,5.13
2022-10-30T03:26:48.747Z,4.80
2022-10-30T03:29:15.329Z,5.17
2022-10-30T03:31:41.971Z,4.70
2022-10-30T03:34:08.570Z,5.13
2022-10-30T03:36:35.220Z,5.40
2022-10-30T03:39:01.881Z,4.73
2022-10-30T03:41:28.494Z,5.10
2022-10-30T03:43:55.159Z,4.77
2022-10-30T03:46:21.783Z,4.60
2022-10-30T03:48:51.459Z,4.90
2022-10-30T03:51:18.173Z,5.40
2022-10-30T03:53:44.732Z,4.83
2022-10-30T03:56:11.527Z,4.50
2022-10-30T03:58:38.173Z,4.70
2022-10-30T04:01:06.306Z,5.03
2022-10-30T04:03:33.521Z,4.43
2022-10-30T04:06:00.343Z,4.93
2022-10-30T04:08:26.989Z,4.73
2022-10-30T04:10:53.826Z,4.77
2022-10-30T04:13:20.505Z,4.80
2022-10-30T04:15:55.991Z,4.63
2022-10-30T04:18:24.710Z,4.80
2022-10-30T04:20:51.299Z,4.70
2022-10-30T04:23:19.432Z,5.10
2022-10-30T04:25:46.166Z,4.63
2022-10-30T04:28:13.241Z,4.50
2022-10-30T04:30:40.658Z,4.73
2022-10-30T04:33:10.767Z,5.17
2022-10-30T04:35:37.719Z,5.00
2022-10-30T04:38:10.391Z,4.53
2022-10-30T04:40:38.930Z,5.03
2022-10-30T04:43:06.441Z,5.13
2022-10-30T04:45:33.180Z,4.90
2022-10-30T04:48:08.659Z,5.27
2022-10-30T04:50:35.570Z,5.00
2022-10-30T04:53:07.457Z,4.93
2022-10-30T04:55:34.409Z,4.83
2022-10-30T04:58:04.392Z,5.20
2022-10-30T05:00:32.088Z,4.97
2022-10-30T05:03:00.800Z,5.20
2022-10-30T05:05:28.478Z,5.03
2022-10-30T05:07:55.416Z,5.37
2022-10-30T05:10:24.478Z,5.23
2022-10-30T05:12:52.444Z,4.93
2022-10-30T05:15:19.482Z,5.57
2022-10-30T05:17:48.199Z,5.27
2022-10-30T05:20:17.863Z,5.27
2022-10-30T05:22:45.591Z,5.13
2022-10-30T05:25:12.212Z,5.20
2022-10-30T05:27:38.801Z,5.50
2022-10-30T05:30:06.009Z,5.20
2022-10-30T05:32:32.732Z,5.27
2022-10-30T05:34:59.453Z,5.30
2022-10-30T05:37:26.128Z,5.77
2022-10-30T05:39:52.807Z,4.90
2022-10-30T05:42:19.402Z,5.10
2022-10-30T05:45:02.460Z,5.70
2022-10-30T05:47:29.391Z,5.33
2022-10-30T05:49:56.033Z,5.30
2022-10-30T05:52:22.697Z,5.70
2022-10-30T05:54:49.330Z,4.80
2022-10-30T05:57:15.972Z,5.27
2022-10-30T05:59:42.638Z,5.37
2022-10-30T06:02:09.380Z,5.47
2022-10-30T06:04:36.049Z,4.93
2022-10-30T06:07:02.720Z,5.00
2022-10-30T06:09:29.371Z,5.27
2022-10-30T06:11:56.312Z,5.13
2022-10-30T06:14:22.991Z,5.03
2022-10-30T06:16:49.716Z,5.83
2022-10-30T06:19:18.618Z,5.30
2022-10-30T06:21:46.542Z,4.63
2022-10-30T06:24:13.667Z,5.87
2022-10-30T06:26:40.745Z,5.90
2022-10-30T06:29:07.391Z,5.40
2022-10-30T06:31:34.048Z,5.40
2022-10-30T06:34:00.875Z,4.90
2022-10-30T06:36:27.540Z,5.00
2022-10-30T06:38:54.325Z,4.37
2022-10-30T06:41:24.631Z,4.97
2022-10-30T06:43:56.674Z,5.00
2022-10-30T06:46:25.733Z,5.37
2022-10-30T06:48:55.752Z,5.73
2022-10-30T06:51:22.477Z,5.20
2022-10-30T06:53:49.087Z,4.80
2022-10-30T06:56:16.003Z,5.50
2022-10-30T06:58:43.330Z,6.00
2022-10-30T07:01:10.038Z,5.30
2022-10-30T07:03:36.672Z,5.07
2022-10-30T07:06:03.705Z,5.50
2022-10-30T07:08:30.591Z,5.20
2022-10-30T07:10:58.744Z,5.07
2022-10-30T07:13:25.462Z,5.10
2022-10-30T07:15:52.071Z,4.90
2022-10-30T07:18:18.709Z,5.27
2022-10-30T07:20:45.329Z,5.60
2022-10-30T07:23:11.962Z,5.63
2022-10-30T07:25:38.557Z,5.90
2022-10-30T07:28:05.289Z,5.50
2022-10-30T07:30:32.015Z,5.10
2022-10-30T07:33:03.816Z,5.37
2022-10-30T07:35:31.200Z,5.33
2022-10-30T07:38:03.449Z,5.53
2022-10-30T07:40:30.273Z,5.43
2022-10-30T07:42:58.480Z,5.30
2022-10-30T07:45:25.564Z,5.77
2022-10-30T07:47:52.277Z,5.40
2022-10-30T07:50:19.514Z,5.07
2022-10-30T07:52:46.211Z,5.10
2022-10-30T07:55:13.324Z,5.33
2022-10-30T07:57:41.564Z,4.90
2022-10-30T08:00:10.755Z,5.30
2022-10-30T08:02:37.663Z,5.57
2022-10-30T08:05:05.708Z,6.13
2022-10-30T08:07:37.479Z,5.33
2022-10-30T08:10:05.919Z,5.20
2022-10-30T08:12:34.036Z,5.23
2022-10-30T08:15:01.014Z,5.13
2022-10-30T08:17:29.628Z,5.23
2022-10-30T08:19:57.341Z,5.20
2022-10-30T08:22:24.539Z,5.13
2022-10-30T08:24:51.423Z,5.83
2022-10-30T08:27:18.055Z,4.90
2022-10-30T08:29:44.716Z,5.00
2022-10-30T08:32:11.371Z,4.80
2022-10-30T08:34:38.029Z,4.50
2022-10-30T08:37:04.703Z,4.60
2022-10-30T08:39:31.381Z,4.23
2022-10-30T08:41:59.652Z,4.80
2022-10-30T08:44:26.743Z,4.80
2022-10-30T08:46:53.347Z,4.37
2022-10-30T08:49:20.169Z,4.87
2022-10-30T08:51:46.848Z,4.43
2022-10-30T08:54:13.475Z,4.87
2022-10-30T08:56:40.085Z,4.67
2022-10-30T08:59:06.753Z,4.90
2022-10-30T09:01:33.429Z,4.30
2022-10-30T09:04:00.216Z,3.90
2022-10-30T09:06:26.837Z,4.50
2022-10-30T09:08:53.470Z,4.37
2022-10-30T09:11:20.166Z,4.30
2022-10-30T09:13:46.779Z,4.57
2022-10-30T09:16:13.427Z,4.57
2022-10-30T09:18:40.068Z,4.80
2022-10-30T09:21:06.811Z,4.53
2022-10-30T09:23:33.601Z,4.43
2022-10-30T09:26:00.213Z,4.37
2022-10-30T09:28:26.894Z,4.47
2022-10-30T09:30:56.565Z,4.23
2022-10-30T09:33:23.335Z,4.27
2022-10-30T09:35:49.962Z,4.30
2022-10-30T09:38:16.814Z,4.83
2022-10-30T09:40:46.531Z,4.80
2022-10-30T09:43:39.608Z,4.10
2022-10-30T09:46:45.566Z,4.40
2022-10-30T09:49:30.711Z,4.23
2022-10-30T09:52:08.338Z,4.03
2022-10-30T09:55:00.414Z,4.90
2022-10-30T09:57:35.535Z,4.00
2022-10-30T10:00:11.197Z,4.30
2022-10-30T10:02:58.232Z,4.30
2022-10-30T10:05:29.014Z,4.27
2022-10-30T10:08:04.320Z,4.50
2022-10-30T10:10:40.530Z,4.10
2022-10-30T10:13:16.507Z,3.87
2022-10-30T10:15:50.099Z,4.20
2022-10-30T10:18:28.926Z,3.80
2022-10-30T10:20:59.779Z,3.87
2022-10-30T10:23:34.167Z,3.73
2022-10-30T10:26:05.570Z,3.87
2022-10-30T10:28:47.751Z,3.97
2022-10-30T10:31:33.612Z,4.00
2022-10-30T10:34:15.108Z,3.73
2022-10-30T10:37:35.054Z,3.93
2022-10-30T10:40:07.874Z,4.17
2022-10-30T10:43:06.387Z,4.20
2022-10-30T10:45:58.118Z,4.20
2022-10-30T10:48:33.643Z,4.10
2022-10-30T10:51:15.471Z,3.87
2022-10-30T10:53:47.248Z,3.60
2022-10-30T10:56:14.171Z,4.50
2022-10-30T10:58:45.715Z,4.03
2022-10-30T11:01:18.018Z,4.60
2022-10-30T11:03:57.529Z,4.30
2022-10-30T11:06:30.144Z,4.22
2022-10-30T11:09:15.455Z,3.90
2022-10-30T11:11:43.623Z,4.30
2022-10-30T11:14:21.243Z,4.30
2022-10-30T11:17:27.085Z,4.18
2022-10-30T11:20:02.200Z,4.22
2022-10-30T11:22:34.519Z,4.43
2022-10-30T11:25:33.201Z,4.22
2022-10-30T11:28:02.300Z,4.17
2022-10-30T11:30:29.128Z,4.80
2022-10-30T11:32:57.274Z,3.50
2022-10-30T11:35:25.359Z,4.30
2022-10-30T11:38:13.453Z,4.50
2022-10-30T11:40:41.499Z,4.70
2022-10-30T11:43:09.629Z,4.43
2022-10-30T11:45:41.767Z,4.47
2022-10-30T11:48:21.713Z,4.43
2022-10-30T11:50:49.612Z,4.72
2022-10-30T11:53:40.207Z,4.20
2022-10-30T11:56:16.478Z,4.13
2022-10-30T11:58:46.933Z,4.20
2022-10-30T12:01:22.784Z,3.80
2022-10-30T12:03:49.847Z,4.10
2022-10-30T12:06:25.561Z,3.90
2022-10-30T12:09:04.716Z,4.55
2022-10-30T12:11:33.577Z,4.20
2022-10-30T12:14:02.361Z,3.90
2022-10-30T12:16:29.573Z,4.10
2022-10-30T12:19:08.872Z,4.57
2022-10-30T12:21:38.277Z,4.90
2022-10-30T12:24:11.037Z,4.43
2022-10-30T12:26:38.340Z,4.60
2022-10-30T12:29:08.626Z,4.40
2022-10-30T12:31:39.761Z,4.07
2022-10-30T12:34:24.012Z,3.95
2022-10-30T12:36:57.147Z,4.23
2022-10-30T12:39:48.244Z,4.77
2022-10-30T12:42:23.444Z,3.90
2022-10-30T12:44:55.514Z,4.35
2022-10-30T12:47:46.246Z,4.03
2022-10-30T12:50:20.491Z,4.32
2022-10-30T12:53:10.568Z,4.15
2022-10-30T12:56:01.629Z,4.28
2022-10-30T12:58:40.541Z,3.85
2022-10-30T13:01:11.257Z,3.80
2022-10-30T13:03:53.821Z,4.13
2022-10-30T13:06:24.964Z,4.63
2022-10-30T13:09:10.247Z,4.07
2022-10-30T13:11:51.868Z,4.35
2022-10-30T13:14:21.328Z,4.07
2022-10-30T13:16:48.036Z,4.72
2022-10-30T13:19:14.676Z,4.17
2022-10-30T13:21:58.867Z,5.53
2022-10-30T13:24:47.229Z,4.50
2022-10-30T13:27:22.346Z,4.68
2022-10-30T13:30:33.709Z,5.25
2022-10-30T13:33:00.584Z,4.53
2022-10-30T13:35:34.557Z,4.63
2022-10-30T13:38:12.633Z,4.50
2022-10-30T13:40:52.426Z,4.35
2022-10-30T13:43:28.836Z,4.90
2022-10-30T13:46:05.862Z,5.00
2022-10-30T13:48:58.915Z,4.57
2022-10-30T13:52:01.003Z,4.85
2022-10-30T13:54:38.495Z,4.50
2022-10-30T13:57:20.291Z,4.53
2022-10-30T14:00:25.662Z,4.65
2022-10-30T14:03:16.860Z,4.75
2022-10-30T14:05:48.380Z,4.47
2022-10-30T14:08:21.981Z,5.22
2022-10-30T14:10:54.563Z,5.45
2022-10-30T14:13:29.669Z,5.72
2022-10-30T14:16:01.054Z,6.05
2022-10-30T14:18:30.496Z,6.60
2022-10-30T14:20:58.709Z,6.07
2022-10-30T14:23:37.451Z,5.47
2022-10-30T14:26:06.978Z,5.05
2022-10-30T14:28:55.704Z,4.97
2022-10-30T14:31:42.561Z,5.05
2022-10-30T14:34:47.814Z,5.72
2022-10-30T14:37:14.520Z,5.53
2022-10-30T14:39:42.920Z,5.50
2022-10-30T14:42:37.882Z,5.32
2022-10-30T14:45:22.991Z,5.32
2022-10-30T14:48:11.307Z,5.38
2022-10-30T14:50:53.171Z,5.63
2022-10-30T14:53:58.993Z,5.10
2022-10-30T14:56:39.895Z,4.85
2022-10-30T14:59:12.516Z,5.30
2022-10-30T15:02:12.892Z,5.45
2022-10-30T15:04:51.583Z,4.90
2022-10-30T15:07:55.058Z,5.40
2022-10-30T15:10:35.155Z,5.47
2022-10-30T15:13:19.315Z,6.50
2022-10-30T15:15:46.597Z,8.45
2022-10-30T15:18:20.059Z,7.18
2022-10-30T15:20:56.862Z,7.20
2022-10-30T15:23:30.605Z,6.45
2022-10-30T15:26:02.564Z,7.00
2022-10-30T15:28:34.758Z,6.95
2022-10-30T15:31:06.296Z,5.20
2022-10-30T15:33:37.288Z,4.95
2022-10-30T15:36:05.458Z,4.88
2022-10-30T15:38:32.158Z,5.10
2022-10-30T15:41:02.261Z,5.72
2022-10-30T15:43:37.778Z,5.63
2022-10-30T15:46:09.843Z,5.68
2022-10-30T15:48:38.769Z,5.85
2022-10-30T15:51:19.992Z,5.88
2022-10-30T15:53:48.527Z,6.28
2022-10-30T15:57:06.794Z,5.88
2022-10-30T16:05:23.288Z,5.27
2022-10-30T16:07:50.081Z,6.30
2022-10-30T16:14:29.132Z,6.40
2022-10-30T16:16:59.994Z,6.43
2022-10-30T16:19:32.179Z,7.00
2022-10-30T16:21:59.118Z,6.80
2022-10-30T16:24:33.537Z,7.13
2022-10-30T16:27:18.418Z,7.40
2022-10-30T16:29:54.156Z,7.47
2022-10-30T16:32:25.075Z,7.30
2022-10-30T16:34:55.838Z,7.57
2022-10-30T16:37:28.614Z,7.57
2022-10-30T16:39:56.334Z,7.70
2022-10-30T16:42:26.734Z,6.85
2022-10-30T16:45:11.796Z,5.77
2022-10-30T16:47:52.427Z,6.63
2022-10-30T16:50:20.696Z,5.87
2022-10-30T16:52:47.479Z,7.00
2022-10-30T16:55:23.788Z,6.17
2022-10-30T16:57:55.250Z,5.63
2022-10-30T17:00:35.463Z,5.77
2022-10-30T17:03:10.999Z,5.70
2022-10-30T17:05:44.385Z,6.50
2022-10-30T17:08:43.922Z,6.83
2022-10-30T17:11:43.764Z,7.37
2022-10-30T17:14:21.597Z,8.23
2022-10-30T17:16:56.682Z,12.00
2022-10-30T17:19:32.569Z,10.60
2022-10-30T17:22:01.353Z,7.60
2022-10-30T17:24:32.952Z,7.63
2022-10-30T17:27:01.740Z,6.30
2022-10-30T17:29:37.450Z,6.57
2022-10-30T17:32:22.294Z,7.00
2022-10-30T17:35:00.094Z,6.40
2022-10-30T17:37:27.347Z,6.43
2022-10-30T17:40:02.090Z,6.87
2022-10-30T17:42:28.847Z,6.23
2022-10-30T17:44:58.273Z,7.10
2022-10-30T17:47:27.856Z,6.30
2022-10-30T17:50:10.438Z,6.40
2022-10-30T17:52:37.216Z,6.00
2022-10-30T17:55:17.232Z,6.53
2022-10-30T17:57:44.079Z,6.53
2022-10-30T18:00:11.266Z,6.27
2022-10-30T18:02:38.438Z,6.57
2022-10-30T18:05:20.265Z,6.37
2022-10-30T18:07:47.093Z,7.60
2022-10-30T18:10:14.068Z,7.07
2022-10-30T18:12:41.654Z,6.07
2022-10-30T18:15:21.211Z,6.40
2022-10-30T18:17:47.920Z,6.80
2022-10-30T18:20:14.530Z,7.33
2022-10-30T18:23:31.518Z,7.33
2022-10-30T18:25:58.675Z,7.50
2022-10-30T18:28:25.311Z,8.10
2022-10-30T18:30:57.941Z,8.57
2022-10-30T18:33:25.494Z,9.40
2022-10-30T18:35:52.504Z,10.50
2022-10-30T18:38:21.773Z,8.30
2022-10-30T18:40:51.788Z,9.50
2022-10-30T18:43:24.986Z,7.50
2022-10-30T18:45:54.269Z,9.90
2022-10-30T18:48:20.983Z,8.40
2022-10-30T18:50:47.935Z,7.50
2022-10-30T18:53:18.298Z,11.57
2022-10-30T18:55:45.340Z,11.73
2022-10-30T18:58:12.207Z,10.43
2022-10-30T19:01:10.465Z,9.70
2022-10-30T19:03:30.795Z,9.20
2022-10-30T19:05:57.745Z,7.70
2022-10-30T19:08:24.450Z,10.87
2022-10-30T19:11:00.651Z,8.30
2022-10-30T19:13:27.387Z,8.73
2022-10-30T19:16:00.373Z,8.30
2022-10-30T19:18:28.638Z,7.30
2022-10-30T19:21:15.703Z,7.33
2022-10-30T19:23:46.993Z,7.03
2022-10-30T19:26:14.825Z,6.80
2022-10-30T19:28:41.829Z,7.17
2022-10-30T19:31:13.382Z,6.97
2022-10-30T19:33:40.141Z,7.13
2022-10-30T19:36:09.566Z,7.07
2022-10-30T19:38:36.569Z,7.07
2022-10-30T19:41:06.792Z,7.93
2022-10-30T19:43:33.734Z,6.90
2022-10-30T19:46:00.426Z,7.53
2022-10-30T19:48:56.173Z,7.50
2022-10-30T19:51:13.823Z,7.17
2022-10-30T19:53:40.613Z,6.97
2022-10-30T19:56:07.559Z,7.33
2022-10-30T19:58:34.543Z,7.40
2022-10-30T20:01:01.348Z,7.90
2022-10-30T20:03:28.006Z,7.50
2022-10-30T20:05:55.829Z,6.90
2022-10-30T20:08:26.033Z,7.27
2022-10-30T20:11:02.707Z,7.40
2022-10-30T20:13:29.840Z,7.80
2022-10-30T20:15:59.264Z,7.73
2022-10-30T20:18:30.453Z,7.67
2022-10-30T20:20:59.673Z,7.87
2022-10-30T20:23:27.051Z,8.70
2022-10-30T20:25:57.101Z,8.13
2022-10-30T20:28:37.934Z,8.20
2022-10-30T20:31:05.670Z,8.30
2022-10-30T20:33:32.642Z,8.13
2022-10-30T20:35:59.373Z,8.63
2022-10-30T20:38:29.405Z,8.57
2022-10-30T20:40:57.011Z,8.27
2022-10-30T20:43:31.439Z,7.93
2022-10-30T20:46:02.227Z,9.20
2022-10-30T20:48:29.119Z,9.43
2022-10-30T20:50:56.938Z,7.87
2022-10-30T20:53:23.688Z,7.50
2022-10-30T20:55:50.529Z,8.03
2022-10-30T20:58:17.506Z,7.97
2022-10-30T21:00:44.357Z,8.60
2022-10-30T21:03:14.435Z,8.20
2022-10-30T21:05:44.254Z,7.87
2022-10-30T21:08:11.752Z,8.77
2022-10-30T21:10:38.926Z,8.30
2022-10-30T21:13:08.883Z,8.37
2022-10-30T21:15:41.586Z,8.83
2022-10-30T21:18:09.542Z,7.97
2022-10-30T21:20:37.286Z,8.20
2022-10-30T21:23:04.515Z,8.50
2022-10-30T21:25:32.566Z,8.40
2022-10-30T21:27:59.582Z,9.10
2022-10-30T21:30:26.343Z,8.80
2022-10-30T21:32:53.057Z,8.17
2022-10-30T21:35:20.099Z,7.90
2022-10-30T21:37:46.824Z,7.57
2022-10-30T21:40:13.705Z,7.40
2022-10-30T21:42:40.314Z,6.90
2022-10-30T21:45:07.634Z,7.70
2022-10-30T21:47:36.383Z,6.90
2022-10-30T21:50:07.743Z,7.20
2022-10-30T21:52:37.474Z,7.70
2022-10-30T21:55:04.496Z,7.20
2022-10-30T21:57:33.166Z,6.67
2022-10-30T22:00:01.870Z,7.10
2022-10-30T22:02:32.763Z,7.13
2022-10-30T22:04:59.366Z,7.80
2022-10-30T22:07:29.164Z,7.47
2022-10-30T22:09:56.206Z,7.77
2022-10-30T22:12:22.880Z,7.57
2022-10-30T22:14:49.562Z,7.20
2022-10-30T22:17:16.372Z,7.23
2022-10-30T22:19:45.510Z,7.07
2022-10-30T22:22:12.476Z,6.60
2022-10-30T22:24:39.090Z,7.10
2022-10-30T22:27:05.724Z,6.63
2022-10-30T22:29:32.807Z,6.77
2022-10-30T22:31:59.431Z,6.60
2022-10-30T22:34:26.206Z,7.63
2022-10-30T22:36:53.414Z,7.33
2022-10-30T22:39:20.210Z,6.77
2022-10-30T22:41:46.865Z,7.33
2022-10-30T22:44:15.175Z,7.10
2022-10-30T22:46:41.834Z,7.77
2022-10-30T22:49:08.592Z,7.37
2022-10-30T22:51:37.206Z,8.30
2022-10-30T22:54:06.180Z,8.27
2022-10-30T22:56:35.420Z,9.03
2022-10-30T22:59:04.625Z,7.83
2022-10-30T23:01:32.883Z,8.23
2022-10-30T23:04:01.063Z,7.37
2022-10-30T23:06:29.496Z,8.27
2022-10-30T23:09:00.810Z,8.07
2022-10-30T23:11:28.304Z,7.53
2022-10-30T23:13:55.017Z,8.27
2022-10-30T23:16:23.988Z,8.53
2022-10-30T23:18:50.999Z,8.10
2022-10-30T23:21:20.221Z,8.43
2022-10-30T23:23:47.446Z,8.37
2022-10-30T23:26:17.205Z,7.80
2022-10-30T23:28:44.739Z,8.33
2022-10-30T23:31:19.636Z,8.83
2022-10-30T23:33:50.642Z,8.90
2022-10-30T23:36:17.563Z,8.73
2022-10-30T23:38:44.263Z,8.17
2022-10-30T23:41:11.147Z,8.60
2022-10-30T23:43:37.774Z,8.90
2022-10-30T23:46:04.401Z,8.70
2022-10-30T23:48:31.005Z,8.83
2022-10-30T23:50:57.659Z,9.13
2022-10-30T23:53:24.319Z,8.73
2022-10-30T23:55:54.443Z,8.30
2022-10-30T23:58:21.680Z,7.53
